• Join FlightAware (Why Join?)
  • Login
  • US Flag 
04:58PM EDT


 

Airport Tracker/Info


-or-


 

Live Flight TrackerFlight Track Log ✈ RPA3321 ✈ 25-Apr-2013 ✈ KALB - KDCA

Flight Track Log - Related Links

Times and Time Zones

All times are in EDT time to prevent confusion due to time zone crossing. See the RPA3321 flight status page for this flight to view local times or setup timezone preferences in your user account.

Time Position Orientation Groundspeed Altitude Reporting Facility
EDT Latitude Longitude Course Direction KTS MPH feet Rate Location/Type
05:41AM 42.7631 -73.8061 180° South 153 176 1,200  Level Boston Center
05:42AM 42.8128 -73.8325 339° North 180 207 3,800 2,220 Climbing Boston Center
05:43AM 42.5153 -74.0095 171° South  Level Estimated
05:43AM 42.8536 -73.9044 308° West 221 254 6,400  Level Boston Center
05:44AM 42.4373 -74.0783 180° South  Level Estimated
05:44AM 42.8817 -73.9844 296° West 233 268 9,100  Level Boston Center
05:45AM 42.3593 -74.1470 170° South  Level Estimated
05:45AM 42.9183 -74.0617 303° West 255 293 11,200  Level Boston Center
05:46AM 42.2812 -74.2155 180° South  Level Estimated
05:46AM 42.9019 -74.1692 258° West 259 298 13,700  Level Boston Center
05:47AM 42.8147 -74.1469 169° South 227 261 16,800 2,220 Climbing Boston Center
05:48AM 42.7342 -74.1078 160° South 302 348 18,700 1,560 Climbing Boston Center
05:49AM 42.6328 -74.0544 159° South 314 361 20,300 1,500 Climbing Boston Center
05:50AM 42.5439 -74.0069 159° South 327 376 21,800 1,260 Climbing Boston Center
05:51AM 42.4528 -73.9597 159° South 337 388 22,900 1,200 Climbing Boston Center
05:52AM 42.3597 -73.9125 159° South 349 402 24,300 1,260 Climbing Boston Center
05:53AM 42.2478 -73.8536 159° South 356 410 25,700 1,020 Climbing Boston Center
05:54AM 42.1525 -73.8094 161° South 356 410 26,600 900 Climbing Boston Center
05:55AM 42.0603 -73.8383 193° South 340 391 27,600 1,200 Climbing Boston Center
05:56AM 41.9722 -73.8808 200° South 334 384 29,100 1,200 Climbing Boston Center
05:57AM 41.8842 -73.9208 199° South 334 384 30,000 420 Climbing Boston Center
05:58AM 41.7983 -73.9606 199° South 340 391 30,000  Level Boston Center
06:01AM 41.5889 -74.0494 198° South 328 377 30,000  Level New York Center
06:02AM 41.5108 -74.0844 199° South 323 372 30,000  Level New York Center
06:03AM 41.4222 -74.1242 199° South 335 386 30,000  Level New York Center
06:04AM 41.3336 -74.1642 199° South 335 386 30,000  Level New York Center
06:05AM 41.2367 -74.2061 198° South 335 386 30,000  Level New York Center
06:06AM 41.1583 -74.2489 202° Southwest 335 386 30,000  Level New York Center
06:07AM 41.0894 -74.3253 220° Southwest 335 386 30,000  Level New York Center
06:08AM 41.0222 -74.4069 223° Southwest 330 380 30,000  Level New York Center
06:09AM 40.9553 -74.4883 223° Southwest 330 380 30,000  Level New York Center
06:10AM 40.8861 -74.5669 221° Southwest 330 380 30,000  Level New York Center
06:11AM 40.8189 -74.6483 223° Southwest 330 380 30,000  Level New York Center
06:12AM 40.7497 -74.7236 220° Southwest 330 380 30,000  Level New York Center
06:13AM 40.6781 -74.8100 222° Southwest 335 386 30,000  Level New York Center
06:14AM 40.6064 -74.8906 220° Southwest 335 386 30,000  Level New York Center
06:15AM 40.5367 -74.9736 222° Southwest 341 392 30,000  Level New York Center
06:16AM 40.4650 -75.0567 221° Southwest 341 392 30,000  Level New York Center
06:17AM 40.3933 -75.1367 220° Southwest 341 392 30,000 -660 Level New York Center
06:18AM 40.3192 -75.2217 221° Southwest 341 392 28,700 -1,500 Descending New York Center
06:19AM 40.2517 -75.2989 221° Southwest 341 392 27,000 -1,680 Descending New York Center
06:20AM 40.1861 -75.3761 222° Southwest 335 386 25,300 -1,740 Descending New York Center
06:21AM 40.1186 -75.4506 220° Southwest 330 380 23,600 -1,680 Descending New York Center
06:22AM 40.0531 -75.5275 222° Southwest 325 374 22,000 -840 Descending New York Center
06:23AM 39.9853 -75.6014 220° Southwest 325 374 22,000  Level New York Center
06:24AM 39.9197 -75.6753 221° Southwest 325 374 22,000  Level New York Center
06:25AM 39.8658 -75.7664 232° Southwest 325 374 22,000  Level New York Center
06:26AM 39.8225 -75.8578 238° Southwest 320 368 22,000 -300 Level New York Center
06:27AM 39.7744 -75.9517 236° Southwest 315 362 21,400 -1,380 Descending New York Center
06:28AM 39.6833 -76.1167 234° Southwest 313 360 18,300 -1,740 Descending Potomac TRACON
06:29AM 39.6333 -76.2167 237° Southwest 307 353 16,700 -1,620 Descending Potomac TRACON
06:31AM 39.5833 -76.3167 237° Southwest 297 342 14,900 -1,620 Descending Potomac TRACON
06:31AM 39.5333 -76.3500 207° Southwest 297 342 13,700 -1,560 Descending Potomac TRACON
06:32AM 39.4500 -76.4167 212° Southwest 299 344 12,000 -1,260 Descending Potomac TRACON
06:33AM 39.3833 -76.4833 218° Southwest 306 352 11,100 -1,020 Descending Potomac TRACON
06:34AM 39.3167 -76.5333 210° Southwest 315 362 10,100 -600 Descending Potomac TRACON
06:35AM 39.2333 -76.6000 212° Southwest 308 354 10,000 -60 Descending Potomac TRACON
06:36AM 39.1833 -76.6667 226° Southwest 266 306 10,000  Level Potomac TRACON
06:37AM 39.1333 -76.7167 218° Southwest 256 295 10,000 -360 Level Potomac TRACON
06:38AM 39.0833 -76.7667 218° Southwest 255 293 9,400 -1,500 Descending Potomac TRACON
06:39AM 39.0333 -76.8333 226° Southwest 265 305 7,200 -1,800 Descending Potomac TRACON
06:40AM 38.9833 -76.8833 218° Southwest 267 307 6,000 -600 Descending Potomac TRACON
06:41AM 38.9000 -76.9500 212° Southwest 281 323 6,000  Level Potomac TRACON
06:42AM 38.8333 -76.9500 180° South 292 336 6,000 -960 Level Potomac TRACON
06:43AM 38.7667 -76.9500 180° South 255 293 4,200 -1,800 Descending Potomac TRACON
06:44AM 38.7167 -76.9667 195° South 244 281 2,600 -1,020 Descending Potomac TRACON
06:45AM 38.7167 -77.0167 270° West 181 208 2,300 -480 Descending Potomac TRACON
06:46AM 38.7500 -77.0333 339° North 138 159 1,800 -600 Descending Potomac TRACON